createdAt,value
2016-11-06T00:00:17.411Z,25.91
2016-11-06T00:00:58.092Z,25.91
2016-11-06T00:01:38.802Z,25.91
2016-11-06T00:02:19.472Z,25.88
2016-11-06T00:03:00.172Z,25.91
2016-11-06T00:03:40.833Z,25.85
2016-11-06T00:04:21.522Z,25.85
2016-11-06T00:05:02.218Z,25.85
2016-11-06T00:05:42.881Z,25.88
2016-11-06T00:06:23.553Z,25.82
2016-11-06T00:07:04.258Z,25.88
2016-11-06T00:07:44.938Z,25.87
2016-11-06T00:08:25.640Z,25.87
2016-11-06T00:09:06.306Z,25.87
2016-11-06T00:09:46.966Z,25.9
2016-11-06T00:10:27.689Z,25.9
2016-11-06T00:11:08.388Z,25.83
2016-11-06T00:11:49.018Z,25.85
2016-11-06T00:12:29.740Z,25.83
2016-11-06T00:13:10.372Z,25.79
2016-11-06T00:13:51.055Z,25.8
2016-11-06T00:14:31.748Z,25.91
2016-11-06T00:15:13.157Z,25.83
2016-11-06T00:15:53.124Z,25.85
2016-11-06T00:16:34.396Z,25.8
2016-11-06T00:17:15.000Z,25.85
2016-11-06T00:17:55.690Z,25.85
2016-11-06T00:18:36.425Z,25.82
2016-11-06T00:19:17.140Z,25.85
2016-11-06T00:19:57.831Z,25.88
2016-11-06T00:20:39.160Z,25.76
2016-11-06T00:21:19.191Z,25.91
2016-11-06T00:21:59.819Z,25.8
2016-11-06T00:22:40.507Z,25.82
2016-11-06T00:23:21.200Z,25.8
2016-11-06T00:24:01.887Z,25.77
2016-11-06T00:24:42.617Z,25.73
2016-11-06T00:25:23.317Z,25.85
2016-11-06T00:26:04.004Z,25.76
2016-11-06T00:26:44.719Z,25.76
2016-11-06T00:27:25.405Z,25.8
2016-11-06T00:28:06.151Z,25.83
2016-11-06T00:28:46.776Z,25.83
2016-11-06T00:29:27.458Z,25.8
2016-11-06T00:30:08.160Z,25.82
2016-11-06T00:30:48.845Z,25.79
2016-11-06T00:31:29.555Z,25.85
2016-11-06T00:32:10.294Z,25.85
2016-11-06T00:32:50.981Z,25.79
2016-11-06T00:33:31.675Z,25.85
2016-11-06T00:34:12.393Z,25.83
2016-11-06T00:34:53.035Z,25.79
2016-11-06T00:35:33.727Z,25.79
2016-11-06T00:36:14.397Z,25.82
2016-11-06T00:36:55.083Z,25.79
2016-11-06T00:37:35.836Z,25.8
2016-11-06T00:38:16.515Z,25.76
2016-11-06T00:38:57.178Z,25.83
2016-11-06T00:39:37.878Z,25.8
2016-11-06T00:40:18.547Z,25.85
2016-11-06T00:40:59.233Z,25.83
2016-11-06T00:41:39.928Z,25.77
2016-11-06T00:42:20.615Z,25.82
2016-11-06T00:43:01.312Z,25.79
2016-11-06T00:43:41.961Z,25.83
2016-11-06T00:44:22.610Z,25.82
2016-11-06T00:45:03.341Z,25.85
2016-11-06T00:45:44.044Z,25.76
2016-11-06T00:46:24.694Z,25.8
2016-11-06T00:47:05.391Z,25.83
2016-11-06T00:47:46.055Z,25.75
2016-11-06T00:48:26.707Z,25.77
2016-11-06T00:49:07.427Z,25.83
2016-11-06T00:49:48.133Z,25.82
2016-11-06T00:50:28.802Z,25.87
2016-11-06T00:51:09.443Z,25.75
2016-11-06T00:51:50.134Z,25.8
2016-11-06T00:52:30.854Z,25.79
2016-11-06T00:53:11.517Z,25.83
2016-11-06T00:53:52.223Z,25.76
2016-11-06T00:54:32.853Z,25.8
2016-11-06T00:55:13.569Z,25.83
2016-11-06T00:55:54.249Z,25.83
2016-11-06T00:56:34.939Z,25.8
2016-11-06T00:57:15.577Z,25.79
2016-11-06T00:57:56.250Z,25.85
2016-11-06T00:58:36.964Z,25.77
2016-11-06T00:59:17.665Z,25.82
2016-11-06T00:59:58.369Z,25.8
2016-11-06T01:00:39.059Z,25.8
2016-11-06T01:01:19.727Z,25.76
2016-11-06T01:02:00.398Z,25.8
2016-11-06T01:02:41.136Z,25.79
2016-11-06T01:03:21.821Z,25.8
2016-11-06T01:04:02.520Z,25.82
2016-11-06T01:04:43.160Z,25.82
2016-11-06T01:05:23.871Z,25.8
2016-11-06T01:06:04.561Z,25.83
2016-11-06T01:06:45.225Z,25.87
2016-11-06T01:07:25.866Z,25.76
2016-11-06T01:08:06.535Z,25.82
2016-11-06T01:08:47.209Z,25.79
2016-11-06T01:09:27.897Z,25.77
2016-11-06T01:10:08.561Z,25.83
2016-11-06T01:10:49.206Z,25.8
2016-11-06T01:11:29.898Z,25.79
2016-11-06T01:12:10.580Z,25.82
2016-11-06T01:12:51.242Z,25.77
2016-11-06T01:13:31.934Z,25.79
2016-11-06T01:14:12.649Z,25.72
2016-11-06T01:14:53.302Z,25.75
2016-11-06T01:15:34.004Z,25.77
2016-11-06T01:16:14.666Z,25.76
2016-11-06T01:16:55.380Z,25.75
2016-11-06T01:17:36.055Z,25.82
2016-11-06T01:18:16.754Z,25.75
2016-11-06T01:18:57.434Z,25.85
2016-11-06T01:19:38.119Z,25.76
2016-11-06T01:20:18.852Z,25.76
2016-11-06T01:20:59.552Z,25.82
2016-11-06T01:21:40.195Z,25.76
2016-11-06T01:22:20.903Z,25.88
2016-11-06T01:23:01.589Z,25.7
2016-11-06T01:23:42.218Z,25.73
2016-11-06T01:24:22.942Z,25.77
2016-11-06T01:25:03.623Z,25.72
2016-11-06T01:25:44.340Z,25.77
2016-11-06T01:26:25.010Z,25.77
2016-11-06T01:27:05.708Z,25.77
2016-11-06T01:27:46.373Z,25.75
2016-11-06T01:28:27.054Z,25.75
2016-11-06T01:29:07.739Z,25.77
2016-11-06T01:29:48.424Z,25.79
2016-11-06T01:30:29.084Z,25.77
2016-11-06T01:31:09.776Z,25.75
2016-11-06T01:31:50.451Z,25.72
2016-11-06T01:32:31.102Z,25.79
2016-11-06T01:33:11.773Z,25.73
2016-11-06T01:33:52.477Z,25.76
2016-11-06T01:34:33.185Z,25.73
2016-11-06T01:35:13.819Z,25.76
2016-11-06T01:35:54.540Z,25.79
2016-11-06T01:36:35.279Z,25.73
2016-11-06T01:37:15.961Z,25.82
2016-11-06T01:37:56.613Z,25.83
2016-11-06T01:38:37.332Z,25.77
2016-11-06T01:39:18.011Z,25.8
2016-11-06T01:39:58.677Z,25.79
2016-11-06T01:40:39.339Z,25.82
2016-11-06T01:41:20.070Z,25.76
2016-11-06T01:42:00.734Z,25.7
2016-11-06T01:42:41.408Z,25.76
2016-11-06T01:43:22.109Z,25.82
2016-11-06T01:44:02.756Z,25.8
2016-11-06T01:44:43.467Z,25.73
2016-11-06T01:45:24.121Z,25.77
2016-11-06T01:46:04.804Z,25.79
2016-11-06T01:46:45.515Z,25.77
2016-11-06T01:47:26.187Z,25.72
2016-11-06T01:48:06.842Z,25.79
2016-11-06T01:48:47.490Z,25.75
2016-11-06T01:49:28.157Z,25.75
2016-11-06T01:50:08.843Z,25.73
2016-11-06T01:50:49.501Z,25.73
2016-11-06T01:51:30.117Z,25.82
2016-11-06T01:52:10.858Z,25.77
2016-11-06T01:52:51.515Z,25.85
2016-11-06T01:53:32.204Z,25.75
2016-11-06T01:54:12.880Z,25.77
2016-11-06T01:54:53.551Z,25.77
2016-11-06T01:55:34.260Z,25.82
2016-11-06T01:56:14.962Z,25.8
2016-11-06T01:56:56.597Z,25.79
2016-11-06T01:57:37.223Z,25.8
2016-11-06T01:58:17.911Z,25.79
2016-11-06T01:58:58.572Z,25.77
2016-11-06T01:59:39.244Z,25.82
2016-11-06T02:00:19.929Z,25.79
2016-11-06T02:01:00.591Z,25.76
2016-11-06T02:01:41.257Z,25.73
2016-11-06T02:02:21.984Z,25.83
2016-11-06T02:03:02.711Z,25.79
2016-11-06T02:03:43.419Z,25.7
2016-11-06T02:04:24.133Z,25.75
2016-11-06T02:05:04.818Z,25.7
2016-11-06T02:05:45.512Z,25.77
2016-11-06T02:06:26.220Z,25.79
2016-11-06T02:07:06.868Z,25.72
2016-11-06T02:07:47.540Z,25.8
2016-11-06T02:08:28.235Z,25.77
2016-11-06T02:09:08.914Z,25.79
2016-11-06T02:09:49.602Z,25.77
2016-11-06T02:10:30.312Z,25.75
2016-11-06T02:11:10.997Z,25.75
2016-11-06T02:11:51.734Z,25.79
2016-11-06T02:12:32.398Z,25.77
2016-11-06T02:13:13.131Z,25.73
2016-11-06T02:13:53.878Z,25.75
2016-11-06T02:14:34.580Z,25.77
2016-11-06T02:15:15.241Z,25.75
2016-11-06T02:15:55.859Z,25.77
2016-11-06T02:16:36.511Z,25.76
2016-11-06T02:17:17.208Z,25.72
2016-11-06T02:17:57.889Z,25.72
2016-11-06T02:18:38.573Z,25.76
2016-11-06T02:19:19.203Z,25.72
2016-11-06T02:19:59.891Z,25.8
2016-11-06T02:20:40.578Z,25.7
2016-11-06T02:21:21.276Z,25.72
2016-11-06T02:22:01.968Z,25.76
2016-11-06T02:22:42.686Z,25.77
2016-11-06T02:23:23.386Z,25.75
2016-11-06T02:24:04.027Z,25.7
2016-11-06T02:24:44.737Z,25.76
2016-11-06T02:25:25.405Z,25.69
2016-11-06T02:26:06.056Z,25.72
2016-11-06T02:26:46.786Z,25.72
2016-11-06T02:27:27.502Z,25.72
2016-11-06T02:28:08.152Z,25.73
2016-11-06T02:28:48.868Z,25.79
2016-11-06T02:29:29.562Z,25.79
2016-11-06T02:30:10.264Z,25.73
2016-11-06T02:30:50.965Z,25.75
2016-11-06T02:31:31.597Z,25.76
2016-11-06T02:32:12.282Z,25.73
2016-11-06T02:32:52.979Z,25.64
2016-11-06T02:33:33.686Z,25.73
2016-11-06T02:34:14.366Z,25.7
2016-11-06T02:34:55.027Z,25.67
2016-11-06T02:35:35.714Z,25.73
2016-11-06T02:36:16.405Z,25.69
2016-11-06T02:36:57.083Z,25.76
2016-11-06T02:37:37.753Z,25.72
2016-11-06T02:38:18.428Z,25.72
2016-11-06T02:38:59.091Z,25.7
2016-11-06T02:39:39.791Z,25.69
2016-11-06T02:40:20.431Z,25.7
2016-11-06T02:41:01.118Z,25.75
2016-11-06T02:41:41.819Z,25.69
2016-11-06T02:42:22.499Z,25.7
2016-11-06T02:43:03.184Z,25.67
2016-11-06T02:43:43.879Z,25.69
2016-11-06T02:44:24.555Z,25.72
2016-11-06T02:45:05.228Z,25.7
2016-11-06T02:45:45.952Z,25.67
2016-11-06T02:46:26.662Z,25.72
2016-11-06T02:47:07.309Z,25.7
2016-11-06T02:47:47.979Z,25.67
2016-11-06T02:48:28.683Z,25.69
2016-11-06T02:49:10.243Z,25.77
2016-11-06T02:49:49.987Z,25.7
2016-11-06T02:50:30.711Z,25.77
2016-11-06T02:51:11.388Z,25.73
2016-11-06T02:51:52.092Z,25.72
2016-11-06T02:52:32.749Z,25.73
2016-11-06T02:53:13.390Z,25.7
2016-11-06T02:53:54.076Z,25.79
2016-11-06T02:54:34.715Z,25.75
2016-11-06T02:55:15.362Z,25.72
2016-11-06T02:55:56.082Z,25.69
2016-11-06T02:56:36.765Z,25.73
2016-11-06T02:57:17.429Z,25.75
2016-11-06T02:57:58.149Z,25.75
2016-11-06T02:58:38.814Z,25.67
2016-11-06T02:59:19.503Z,25.65
2016-11-06T03:00:00.188Z,25.7
2016-11-06T03:00:40.823Z,25.65
2016-11-06T03:01:21.501Z,25.72
2016-11-06T03:02:02.202Z,25.73
2016-11-06T03:02:42.924Z,25.75
2016-11-06T03:03:23.624Z,25.67
2016-11-06T03:04:04.316Z,25.69
2016-11-06T03:04:45.032Z,25.73
2016-11-06T03:05:25.706Z,25.67
2016-11-06T03:06:06.369Z,25.6
2016-11-06T03:06:47.013Z,25.67
2016-11-06T03:07:27.679Z,25.7
2016-11-06T03:08:08.340Z,25.75
2016-11-06T03:08:49.035Z,25.64
2016-11-06T03:09:29.695Z,25.65
2016-11-06T03:10:10.371Z,25.69
2016-11-06T03:10:51.021Z,25.64
2016-11-06T03:11:31.687Z,25.75
2016-11-06T03:12:12.391Z,25.75
2016-11-06T03:12:53.065Z,25.7
2016-11-06T03:13:33.729Z,25.69
2016-11-06T03:14:14.452Z,25.73
2016-11-06T03:14:55.110Z,25.64
2016-11-06T03:15:35.780Z,25.69
2016-11-06T03:16:16.468Z,25.62
2016-11-06T03:16:57.133Z,25.72
2016-11-06T03:17:37.795Z,25.67
2016-11-06T03:18:18.489Z,25.61
2016-11-06T03:18:59.138Z,25.62
2016-11-06T03:19:39.841Z,25.64
2016-11-06T03:20:20.582Z,25.72
2016-11-06T03:21:01.270Z,25.64
2016-11-06T03:21:41.975Z,25.69
2016-11-06T03:22:22.698Z,25.69
2016-11-06T03:23:03.354Z,25.64
2016-11-06T03:23:44.040Z,25.72
2016-11-06T03:24:24.728Z,25.67
2016-11-06T03:25:05.436Z,25.67
2016-11-06T03:25:46.138Z,25.65
2016-11-06T03:26:26.851Z,25.69
2016-11-06T03:27:07.554Z,25.65
2016-11-06T03:27:48.298Z,25.65
2016-11-06T03:28:28.992Z,25.61
2016-11-06T03:29:09.675Z,25.72
2016-11-06T03:29:50.423Z,25.67
2016-11-06T03:30:31.070Z,25.64
2016-11-06T03:31:11.749Z,25.67
2016-11-06T03:31:52.405Z,25.73
2016-11-06T03:32:33.109Z,25.69
2016-11-06T03:33:13.808Z,25.7
2016-11-06T03:33:54.515Z,25.64
2016-11-06T03:34:35.167Z,25.65
2016-11-06T03:35:15.850Z,25.67
2016-11-06T03:35:56.497Z,25.69
2016-11-06T03:36:37.149Z,25.64
2016-11-06T03:37:17.817Z,25.61
2016-11-06T03:37:58.520Z,25.69
2016-11-06T03:38:39.192Z,25.72
2016-11-06T03:39:19.863Z,25.65
2016-11-06T03:40:00.563Z,25.67
2016-11-06T03:40:41.237Z,25.67
2016-11-06T03:41:21.933Z,25.76
2016-11-06T03:42:02.597Z,25.72
2016-11-06T03:42:43.273Z,25.69
2016-11-06T03:43:23.975Z,25.64
2016-11-06T03:44:04.658Z,25.64
2016-11-06T03:44:45.349Z,25.64
2016-11-06T03:45:26.049Z,25.7
2016-11-06T03:46:06.683Z,25.62
2016-11-06T03:46:47.354Z,25.69
2016-11-06T03:47:28.003Z,25.69
2016-11-06T03:48:08.703Z,25.58
2016-11-06T03:48:49.388Z,25.67
2016-11-06T03:49:30.035Z,25.67
2016-11-06T03:50:10.705Z,25.69
2016-11-06T03:50:51.397Z,25.62
2016-11-06T03:51:32.085Z,25.65
2016-11-06T03:52:12.859Z,25.62
2016-11-06T03:52:53.557Z,25.67
2016-11-06T03:53:34.240Z,25.64
2016-11-06T03:54:14.914Z,25.72
2016-11-06T03:54:55.581Z,25.65
2016-11-06T03:55:36.283Z,25.61
2016-11-06T03:56:16.932Z,25.67
2016-11-06T03:56:57.639Z,25.65
2016-11-06T03:57:38.338Z,25.61
2016-11-06T03:58:19.039Z,25.62
2016-11-06T03:58:59.714Z,25.65
2016-11-06T03:59:40.449Z,25.65
2016-11-06T04:00:21.124Z,25.61
2016-11-06T04:01:01.791Z,25.61
2016-11-06T04:01:42.415Z,25.62
2016-11-06T04:02:23.127Z,25.64
2016-11-06T04:03:03.826Z,25.62
2016-11-06T04:03:44.516Z,25.65
2016-11-06T04:04:25.172Z,25.64
2016-11-06T04:05:05.860Z,25.62
2016-11-06T04:05:46.553Z,25.64
2016-11-06T04:06:27.287Z,25.62
2016-11-06T04:07:07.992Z,25.64
2016-11-06T04:07:48.705Z,25.6
2016-11-06T04:08:29.356Z,25.62
2016-11-06T04:09:10.042Z,25.61
2016-11-06T04:09:50.723Z,25.62
2016-11-06T04:10:31.436Z,25.61
2016-11-06T04:11:12.075Z,25.64
2016-11-06T04:11:52.731Z,25.64
2016-11-06T04:12:33.409Z,25.61
2016-11-06T04:13:14.099Z,25.64
2016-11-06T04:13:54.778Z,25.62
2016-11-06T04:14:35.433Z,25.61
2016-11-06T04:15:16.096Z,25.62
2016-11-06T04:15:56.765Z,25.64
2016-11-06T04:16:37.492Z,25.61
2016-11-06T04:17:18.230Z,25.61
2016-11-06T04:17:58.891Z,25.61
2016-11-06T04:18:39.561Z,25.65
2016-11-06T04:19:20.218Z,25.62
2016-11-06T04:20:00.885Z,25.64
2016-11-06T04:20:41.587Z,25.57
2016-11-06T04:21:22.266Z,25.62
2016-11-06T04:22:02.942Z,25.67
2016-11-06T04:22:43.606Z,25.64
2016-11-06T04:23:24.306Z,25.72
2016-11-06T04:24:04.938Z,25.57
2016-11-06T04:24:45.656Z,25.61
2016-11-06T04:25:26.313Z,25.61
2016-11-06T04:26:06.986Z,25.62
2016-11-06T04:26:47.672Z,25.61
2016-11-06T04:27:28.301Z,25.62
2016-11-06T04:28:08.998Z,25.67
2016-11-06T04:28:49.693Z,25.69
2016-11-06T04:29:30.397Z,25.61
2016-11-06T04:30:11.116Z,25.58
2016-11-06T04:30:51.814Z,25.64
2016-11-06T04:31:32.560Z,25.65
2016-11-06T04:32:13.223Z,25.64
2016-11-06T04:32:53.903Z,25.65
2016-11-06T04:33:34.554Z,25.57
2016-11-06T04:34:15.276Z,25.57
2016-11-06T04:34:55.973Z,25.65
2016-11-06T04:35:36.691Z,25.61
2016-11-06T04:36:17.417Z,25.58
2016-11-06T04:36:58.091Z,25.6
2016-11-06T04:37:38.739Z,25.62
2016-11-06T04:38:19.466Z,25.61
2016-11-06T04:39:00.154Z,25.65
2016-11-06T04:39:40.834Z,25.61
2016-11-06T04:40:21.527Z,25.6
2016-11-06T04:41:02.226Z,25.61
2016-11-06T04:41:42.942Z,25.67
2016-11-06T04:42:23.609Z,25.57
2016-11-06T04:43:04.321Z,25.62
2016-11-06T04:43:45.029Z,25.62
2016-11-06T04:44:25.667Z,25.67
2016-11-06T04:45:06.318Z,25.55
2016-11-06T04:45:47.061Z,25.62
2016-11-06T04:46:27.767Z,25.65
2016-11-06T04:47:08.445Z,25.61
2016-11-06T04:47:49.149Z,25.62
2016-11-06T04:48:29.776Z,25.7
2016-11-06T04:49:10.424Z,25.6
2016-11-06T04:49:51.077Z,25.69
2016-11-06T04:50:31.774Z,25.6
2016-11-06T04:51:12.468Z,25.67
2016-11-06T04:51:53.184Z,25.64
2016-11-06T04:52:33.858Z,25.61
2016-11-06T04:53:14.558Z,25.64
2016-11-06T04:53:55.235Z,25.58
2016-11-06T04:54:35.880Z,25.65
2016-11-06T04:55:16.605Z,25.65
2016-11-06T04:55:57.255Z,25.65
2016-11-06T04:56:38.668Z,25.64
2016-11-06T04:57:19.383Z,25.6
2016-11-06T04:58:00.037Z,25.6
2016-11-06T04:58:40.752Z,25.62
2016-11-06T04:59:21.440Z,25.64
2016-11-06T05:00:02.088Z,25.62
2016-11-06T05:00:42.817Z,25.61
2016-11-06T05:01:23.489Z,25.55
2016-11-06T05:02:04.159Z,25.67
2016-11-06T05:02:44.800Z,25.58
2016-11-06T05:03:25.503Z,25.64
2016-11-06T05:04:06.156Z,25.65
2016-11-06T05:04:46.810Z,25.58
2016-11-06T05:05:27.508Z,25.64
2016-11-06T05:06:08.217Z,25.64
2016-11-06T05:06:48.949Z,25.64
2016-11-06T05:07:29.640Z,25.64
2016-11-06T05:08:10.261Z,25.64
2016-11-06T05:08:50.937Z,25.58
2016-11-06T05:09:31.620Z,25.57
2016-11-06T05:10:12.312Z,25.62
2016-11-06T05:10:52.976Z,25.54
2016-11-06T05:11:33.612Z,25.51
2016-11-06T05:12:14.316Z,25.6
2016-11-06T05:12:55.024Z,25.61
2016-11-06T05:13:35.680Z,25.61
2016-11-06T05:14:16.326Z,25.61
2016-11-06T05:14:57.013Z,25.64
2016-11-06T05:15:37.657Z,25.57
2016-11-06T05:16:18.311Z,25.58
2016-11-06T05:16:59.021Z,25.6
2016-11-06T05:17:39.699Z,25.54
2016-11-06T05:18:20.318Z,25.58
2016-11-06T05:19:00.981Z,25.6
2016-11-06T05:19:41.637Z,25.58
2016-11-06T05:20:22.320Z,25.6
2016-11-06T05:21:03.049Z,25.62
2016-11-06T05:21:43.720Z,25.61
2016-11-06T05:22:24.411Z,25.57
2016-11-06T05:23:05.154Z,25.6
2016-11-06T05:23:45.815Z,25.58
2016-11-06T05:24:26.496Z,25.58
2016-11-06T05:25:07.250Z,25.52
2016-11-06T05:25:47.987Z,25.58
2016-11-06T05:26:28.664Z,25.6
2016-11-06T05:27:09.321Z,25.54
2016-11-06T05:27:50.010Z,25.58
2016-11-06T05:28:30.712Z,25.58
2016-11-06T05:29:11.398Z,25.52
2016-11-06T05:29:52.051Z,25.61
2016-11-06T05:30:32.792Z,25.55
2016-11-06T05:31:13.454Z,25.58
2016-11-06T05:31:54.157Z,25.61
2016-11-06T05:32:34.851Z,25.58
2016-11-06T05:33:15.530Z,25.61
2016-11-06T05:33:56.219Z,25.6
2016-11-06T05:34:36.923Z,25.58
2016-11-06T05:35:17.595Z,25.58
2016-11-06T05:35:58.320Z,25.54
2016-11-06T05:36:38.996Z,25.62
2016-11-06T05:37:19.673Z,25.52
2016-11-06T05:38:00.362Z,25.62
2016-11-06T05:38:41.046Z,25.55
2016-11-06T05:39:21.683Z,25.51
2016-11-06T05:40:02.355Z,25.6
2016-11-06T05:40:43.017Z,25.58
2016-11-06T05:41:23.720Z,25.58
2016-11-06T05:42:04.413Z,25.61
2016-11-06T05:42:45.122Z,25.51
2016-11-06T05:43:25.780Z,25.54
2016-11-06T05:44:06.458Z,25.58
2016-11-06T05:44:47.111Z,25.58
2016-11-06T05:45:27.779Z,25.55
2016-11-06T05:46:08.416Z,25.57
2016-11-06T05:46:49.110Z,25.57
2016-11-06T05:47:29.807Z,25.57
2016-11-06T05:48:10.501Z,25.51
2016-11-06T05:48:51.170Z,25.54
2016-11-06T05:49:31.827Z,25.54
2016-11-06T05:50:12.479Z,25.55
2016-11-06T05:50:53.185Z,25.54
2016-11-06T05:51:33.862Z,25.57
2016-11-06T05:52:14.549Z,25.57
2016-11-06T05:52:55.237Z,25.62
2016-11-06T05:53:35.861Z,25.57
2016-11-06T05:54:16.534Z,25.6
2016-11-06T05:54:57.231Z,25.6
2016-11-06T05:55:37.925Z,25.55
2016-11-06T05:56:18.623Z,25.58
2016-11-06T05:56:59.320Z,25.55
2016-11-06T05:57:40.006Z,25.6
2016-11-06T05:58:20.731Z,25.47
2016-11-06T05:59:01.421Z,25.6
2016-11-06T05:59:42.120Z,25.58
2016-11-06T06:00:22.797Z,25.54
2016-11-06T06:01:03.436Z,25.58
2016-11-06T06:01:44.097Z,25.45
2016-11-06T06:02:24.757Z,25.54
2016-11-06T06:03:05.495Z,25.57
2016-11-06T06:03:46.133Z,25.55
2016-11-06T06:04:26.823Z,25.57
2016-11-06T06:05:07.464Z,25.54
2016-11-06T06:05:48.176Z,25.54
2016-11-06T06:06:28.894Z,25.57
2016-11-06T06:07:09.604Z,25.52
2016-11-06T06:07:50.277Z,25.57
2016-11-06T06:08:30.922Z,25.58
2016-11-06T06:09:11.599Z,25.61
2016-11-06T06:09:52.249Z,25.58
2016-11-06T06:10:32.959Z,25.6
2016-11-06T06:11:13.660Z,25.57
2016-11-06T06:11:54.362Z,25.52
2016-11-06T06:12:35.046Z,25.5
2016-11-06T06:13:15.712Z,25.6
2016-11-06T06:13:56.437Z,25.47
2016-11-06T06:14:37.127Z,25.51
2016-11-06T06:15:17.787Z,25.52
2016-11-06T06:15:58.448Z,25.54
2016-11-06T06:16:39.185Z,25.54
2016-11-06T06:17:19.888Z,25.47
2016-11-06T06:18:00.594Z,25.54
2016-11-06T06:18:41.253Z,25.47
2016-11-06T06:19:21.920Z,25.46
2016-11-06T06:20:02.569Z,25.6
2016-11-06T06:20:43.262Z,25.57
2016-11-06T06:21:24.000Z,25.55
2016-11-06T06:22:04.670Z,25.57
2016-11-06T06:22:45.363Z,25.58
2016-11-06T06:23:26.089Z,25.58
2016-11-06T06:24:06.764Z,25.46
2016-11-06T06:24:47.451Z,25.43
2016-11-06T06:25:28.149Z,25.51
2016-11-06T06:26:08.797Z,25.55
2016-11-06T06:26:49.441Z,25.5
2016-11-06T06:27:30.075Z,25.52
2016-11-06T06:28:10.756Z,25.52
2016-11-06T06:28:51.419Z,25.46
2016-11-06T06:29:32.155Z,25.58
2016-11-06T06:30:12.790Z,25.52
2016-11-06T06:30:53.442Z,25.52
2016-11-06T06:31:34.131Z,25.47
2016-11-06T06:32:14.783Z,25.5
2016-11-06T06:32:55.507Z,25.5
2016-11-06T06:33:36.148Z,25.55
2016-11-06T06:34:16.890Z,25.57
2016-11-06T06:34:57.598Z,25.52
2016-11-06T06:35:38.279Z,25.54
2016-11-06T06:36:18.963Z,25.52
2016-11-06T06:36:59.645Z,25.58
2016-11-06T06:37:40.343Z,25.5
2016-11-06T06:38:20.983Z,25.57
2016-11-06T06:39:01.691Z,25.54
2016-11-06T06:39:42.423Z,25.6
2016-11-06T06:40:23.075Z,25.55
2016-11-06T06:41:03.727Z,25.57
2016-11-06T06:41:44.464Z,25.6
2016-11-06T06:42:25.174Z,25.54
2016-11-06T06:43:05.840Z,25.54
2016-11-06T06:43:46.570Z,25.61
2016-11-06T06:44:27.265Z,25.6
2016-11-06T06:45:07.903Z,25.55
2016-11-06T06:45:48.582Z,25.57
2016-11-06T06:46:29.270Z,25.6
2016-11-06T06:47:09.976Z,25.58
2016-11-06T06:47:50.624Z,25.6
2016-11-06T06:48:31.303Z,25.57
2016-11-06T06:49:11.973Z,25.57
2016-11-06T06:49:52.654Z,25.54
2016-11-06T06:50:33.341Z,25.57
2016-11-06T06:51:14.022Z,25.58
2016-11-06T06:51:54.744Z,25.58
2016-11-06T06:52:35.400Z,25.6
2016-11-06T06:53:16.087Z,25.58
2016-11-06T06:53:56.785Z,25.54
2016-11-06T06:54:37.528Z,25.62
2016-11-06T06:55:18.197Z,25.55
2016-11-06T06:55:58.831Z,25.6
2016-11-06T06:56:39.444Z,25.61
2016-11-06T06:57:20.116Z,25.58
2016-11-06T06:58:00.871Z,25.57
2016-11-06T06:58:41.590Z,25.58
2016-11-06T06:59:22.288Z,25.52
2016-11-06T07:00:02.979Z,25.61
2016-11-06T07:00:43.690Z,25.64
2016-11-06T07:01:24.336Z,25.64
2016-11-06T07:02:05.021Z,25.64
2016-11-06T07:02:45.732Z,25.61
2016-11-06T07:03:26.407Z,25.57
2016-11-06T07:04:07.114Z,25.58
2016-11-06T07:04:47.767Z,25.64
2016-11-06T07:05:28.455Z,25.62
2016-11-06T07:06:09.144Z,25.61
2016-11-06T07:06:49.775Z,25.58
2016-11-06T07:07:30.449Z,25.57
2016-11-06T07:08:11.127Z,25.61
2016-11-06T07:08:51.805Z,25.58
2016-11-06T07:09:32.456Z,25.6
2016-11-06T07:10:13.147Z,25.61
2016-11-06T07:10:53.801Z,25.65
2016-11-06T07:11:34.489Z,25.62
2016-11-06T07:12:15.183Z,25.62
2016-11-06T07:12:55.870Z,25.64
2016-11-06T07:13:36.581Z,25.62
2016-11-06T07:14:17.268Z,25.62
2016-11-06T07:14:57.954Z,25.6
2016-11-06T07:15:38.662Z,25.64
2016-11-06T07:16:19.330Z,25.62
2016-11-06T07:16:59.996Z,25.61
2016-11-06T07:17:40.701Z,25.62
2016-11-06T07:18:21.402Z,25.69
2016-11-06T07:19:02.053Z,25.67
2016-11-06T07:19:42.782Z,25.65
2016-11-06T07:20:23.453Z,25.7
2016-11-06T07:21:04.175Z,25.62
2016-11-06T07:21:44.856Z,25.65
2016-11-06T07:22:25.550Z,25.7
2016-11-06T07:23:06.202Z,25.7
2016-11-06T07:23:46.897Z,25.7
2016-11-06T07:24:27.539Z,25.73
2016-11-06T07:25:08.246Z,25.69
2016-11-06T07:25:48.971Z,25.65
2016-11-06T07:26:29.656Z,25.65
2016-11-06T07:27:10.325Z,25.7
2016-11-06T07:27:51.041Z,25.69
2016-11-06T07:28:31.714Z,25.67
2016-11-06T07:29:12.367Z,25.72
2016-11-06T07:29:53.099Z,25.64
2016-11-06T07:30:33.732Z,25.73
2016-11-06T07:31:14.432Z,25.69
2016-11-06T07:31:55.078Z,25.76
2016-11-06T07:32:35.814Z,25.7
2016-11-06T07:33:16.528Z,25.73
2016-11-06T07:33:57.167Z,25.7
2016-11-06T07:34:37.857Z,25.76
2016-11-06T07:35:18.525Z,25.7
2016-11-06T07:35:59.223Z,25.67
2016-11-06T07:36:39.928Z,25.7
2016-11-06T07:37:20.624Z,25.67
2016-11-06T07:38:01.288Z,25.64
2016-11-06T07:38:41.999Z,25.67
2016-11-06T07:39:22.682Z,25.7
2016-11-06T07:40:03.358Z,25.67
2016-11-06T07:40:44.005Z,25.76
2016-11-06T07:41:24.704Z,25.67
2016-11-06T07:42:05.413Z,25.7
2016-11-06T07:42:46.067Z,25.69
2016-11-06T07:43:26.796Z,25.7
2016-11-06T07:44:07.482Z,25.73
2016-11-06T07:44:48.139Z,25.7
2016-11-06T07:45:28.829Z,25.72
2016-11-06T07:46:09.526Z,25.69
2016-11-06T07:46:50.208Z,25.73
2016-11-06T07:47:30.894Z,25.69
2016-11-06T07:48:11.585Z,25.75
2016-11-06T07:48:52.210Z,25.76
2016-11-06T07:49:32.904Z,25.77
2016-11-06T07:50:13.572Z,25.75
2016-11-06T07:50:54.254Z,25.75
2016-11-06T07:51:34.953Z,25.79
2016-11-06T07:52:15.602Z,25.76
2016-11-06T07:52:56.291Z,25.79
2016-11-06T07:53:36.997Z,25.77
2016-11-06T07:54:17.686Z,25.83
2016-11-06T07:54:58.374Z,25.77
2016-11-06T07:55:39.050Z,25.77
2016-11-06T07:56:19.716Z,25.7
2016-11-06T07:57:00.359Z,25.77
2016-11-06T07:57:41.059Z,25.76
2016-11-06T07:58:21.712Z,25.76
2016-11-06T07:59:02.412Z,25.75
2016-11-06T07:59:43.098Z,25.77
2016-11-06T08:00:23.843Z,25.82
2016-11-06T08:01:04.478Z,25.82
2016-11-06T08:01:45.176Z,25.77
2016-11-06T08:02:25.882Z,25.82
2016-11-06T08:03:06.533Z,25.82
2016-11-06T08:03:47.216Z,25.91
2016-11-06T08:04:27.907Z,25.79
2016-11-06T08:05:08.550Z,25.87
2016-11-06T08:05:49.237Z,25.83
2016-11-06T08:06:29.954Z,25.91
2016-11-06T08:07:10.582Z,25.87
2016-11-06T08:07:51.299Z,25.87
2016-11-06T08:08:31.973Z,25.83
2016-11-06T08:09:12.654Z,25.83
2016-11-06T08:09:53.337Z,25.79
2016-11-06T08:10:34.072Z,25.88
2016-11-06T08:11:14.794Z,25.9
2016-11-06T08:11:55.435Z,25.92
2016-11-06T08:12:36.171Z,25.92
2016-11-06T08:13:16.848Z,25.87
2016-11-06T08:13:57.529Z,25.91
2016-11-06T08:14:38.214Z,25.87
2016-11-06T08:15:18.915Z,25.9
2016-11-06T08:15:59.602Z,25.91
2016-11-06T08:16:40.314Z,25.87
2016-11-06T08:17:20.938Z,25.87
2016-11-06T08:18:01.648Z,25.87
2016-11-06T08:18:42.281Z,25.88
2016-11-06T08:19:22.977Z,25.85
2016-11-06T08:20:03.654Z,25.87
2016-11-06T08:20:44.344Z,25.92
2016-11-06T08:21:25.007Z,25.91
2016-11-06T08:22:05.692Z,25.85
2016-11-06T08:22:46.357Z,25.99
2016-11-06T08:23:27.062Z,25.95
2016-11-06T08:24:07.739Z,25.92
2016-11-06T08:24:48.420Z,26.02
2016-11-06T08:25:29.113Z,25.92
2016-11-06T08:26:09.743Z,25.95
2016-11-06T08:26:50.473Z,25.9
2016-11-06T08:27:31.163Z,26.06
2016-11-06T08:28:11.854Z,26.02
2016-11-06T08:28:52.570Z,25.94
2016-11-06T08:29:33.221Z,26.1
2016-11-06T08:30:13.923Z,25.91
2016-11-06T08:30:54.598Z,25.95
2016-11-06T08:31:35.289Z,26.02
2016-11-06T08:32:15.986Z,26.02
2016-11-06T08:32:56.669Z,25.95
2016-11-06T08:33:37.324Z,25.99
2016-11-06T08:34:18.017Z,26.02
2016-11-06T08:34:58.707Z,26.02
2016-11-06T08:35:39.409Z,26.02
2016-11-06T08:36:20.060Z,25.98
2016-11-06T08:37:00.780Z,25.95
2016-11-06T08:37:41.498Z,26.09
2016-11-06T08:38:22.199Z,26.05
2016-11-06T08:39:02.949Z,26.1
2016-11-06T08:39:43.550Z,26.06
2016-11-06T08:40:24.273Z,26.06
2016-11-06T08:41:04.982Z,26.06
2016-11-06T08:41:45.661Z,26.06
2016-11-06T08:42:26.344Z,26.05
2016-11-06T08:43:07.020Z,26.05
2016-11-06T08:43:47.740Z,26.07
2016-11-06T08:44:28.433Z,26.07
2016-11-06T08:45:09.096Z,26.07
2016-11-06T08:45:49.773Z,26.13